Time;durP1;ratioP1;P1;durP2;ratioP2;P2;SDS_P1;SDS_P2;PMS_P1;PMS_P2;Temp;Humidity;BMP_temperature;BMP_pressure;BME280_temperature;BME280_humidity;BME280_pressure;Samples;Min_cycle;Max_cycle;Signal;HPM_P1;HPM_P2
2022/10/20 00:01:05;;;;;;;10.05;4.53;;;13.30;99.90;;;;;;4989797;28;20022;-74
2022/10/20 00:03:31;;;;;;;9.70;3.88;;;13.20;99.90;;;;;;4982245;28;20035;-75
2022/10/20 00:06:12;;;;;;;7.25;4.57;;;13.20;99.90;;;;;;4984936;28;20056;-75
2022/10/20 00:08:39;;;;;;;9.95;3.65;;;13.20;99.90;;;;;;4973148;28;20085;-75
2022/10/20 00:11:06;;;;;;;8.90;4.47;;;13.30;99.90;;;;;;4979436;28;20022;-75
2022/10/20 00:13:32;;;;;;;9.27;4.78;;;13.30;99.90;;;;;;4981954;28;20554;-76
2022/10/20 00:15:59;;;;;;;12.55;6.72;;;13.30;99.90;;;;;;4978416;28;20118;-74
2022/10/20 00:18:25;;;;;;;13.63;5.00;;;13.30;99.90;;;;;;4975061;28;20379;-75
2022/10/20 00:20:51;;;;;;;7.93;4.95;;;13.50;99.90;;;;;;4980261;28;20069;-75
2022/10/20 00:23:18;;;;;;;8.65;3.97;;;13.50;99.90;;;;;;4980258;28;20491;-74
2022/10/20 00:25:43;;;;;;;10.35;4.60;;;13.40;99.90;;;;;;4972517;28;20066;-74
2022/10/20 00:28:09;;;;;;;9.90;4.72;;;13.40;99.90;;;;;;4972233;28;20070;-74
2022/10/20 00:30:35;;;;;;;9.25;5.05;;;13.50;99.90;;;;;;4974123;28;20047;-75
2022/10/20 00:33:04;;;;;;;16.40;5.28;;;13.50;99.90;;;;;;4972411;28;20070;-75
2022/10/20 00:35:31;;;;;;;13.68;4.95;;;13.50;99.90;;;;;;4972235;28;20042;-75
2022/10/20 00:37:57;;;;;;;8.32;4.88;;;13.40;99.90;;;;;;4972519;28;20115;-75
2022/10/20 00:40:23;;;;;;;9.77;4.85;;;13.50;99.90;;;;;;4973946;28;20118;-75
2022/10/20 00:42:48;;;;;;;7.85;5.20;;;13.40;99.90;;;;;;4972191;28;20062;-75
2022/10/20 00:45:17;;;;;;;14.45;4.22;;;13.50;99.90;;;;;;4972345;28;20077;-74
2022/10/20 00:47:45;;;;;;;11.70;4.75;;;13.40;99.90;;;;;;4972046;28;20041;-75
2022/10/20 00:50:16;;;;;;;12.25;4.63;;;13.40;99.90;;;;;;4972117;28;20506;-75
2022/10/20 00:52:44;;;;;;;10.65;5.57;;;13.40;99.90;;;;;;4972344;28;20062;-75
2022/10/20 00:55:13;;;;;;;8.07;4.70;;;13.40;99.90;;;;;;4974175;28;20062;-74
2022/10/20 00:57:41;;;;;;;10.93;4.70;;;13.30;99.90;;;;;;4971847;28;20031;-74
2022/10/20 01:00:07;;;;;;;12.55;5.38;;;13.30;99.90;;;;;;4970321;28;20158;-74
2022/10/20 01:02:34;;;;;;;15.45;5.25;;;13.20;99.90;;;;;;4971338;28;20018;-74
2022/10/20 01:05:00;;;;;;;9.75;4.70;;;13.20;99.90;;;;;;4970690;28;20097;-74
2022/10/20 01:07:26;;;;;;;8.40;4.97;;;13.10;99.90;;;;;;4972742;28;20527;-74
2022/10/20 01:09:52;;;;;;;10.00;4.75;;;13.20;99.90;;;;;;4968720;28;20361;-75
2022/10/20 01:12:26;;;;;;;12.15;4.97;;;13.20;99.90;;;;;;4968469;28;20057;-74
2022/10/20 01:15:06;;;;;;;7.90;3.80;;;13.20;99.90;;;;;;4968457;28;20022;-75
2022/10/20 01:17:32;;;;;;;10.48;4.85;;;13.10;99.90;;;;;;4970053;28;20067;-77
2022/10/20 01:20:22;;;;;;;10.10;5.18;;;13.10;99.90;;;;;;4973002;28;20039;-76
2022/10/20 01:23:20;;;;;;;10.38;5.68;;;13.10;99.90;;;;;;4970864;28;20041;-75
2022/10/20 01:26:07;;;;;;;11.13;4.50;;;13.10;99.90;;;;;;4970096;28;20689;-76
2022/10/20 01:28:36;;;;;;;13.18;6.22;;;13.00;99.90;;;;;;4970630;28;20376;-75
2022/10/20 01:31:10;;;;;;;9.57;5.33;;;13.10;99.90;;;;;;4970283;28;20744;-75
2022/10/20 01:33:41;;;;;;;13.93;5.32;;;13.10;99.90;;;;;;4971517;28;20106;-75
2022/10/20 01:36:17;;;;;;;13.48;5.53;;;13.10;99.90;;;;;;4971435;28;20523;-75
2022/10/20 01:39:03;;;;;;;13.57;6.07;;;13.10;99.90;;;;;;4974029;28;20310;-75
2022/10/20 01:41:59;;;;;;;11.50;5.38;;;13.30;99.90;;;;;;4971419;28;20118;-76
2022/10/20 01:44:26;;;;;;;12.25;6.15;;;13.30;99.90;;;;;;4972443;28;20109;-75
2022/10/20 01:46:53;;;;;;;15.07;7.82;;;13.30;99.90;;;;;;4970721;28;20043;-75
2022/10/20 01:49:19;;;;;;;8.95;5.13;;;13.30;99.90;;;;;;4969733;28;20027;-75
2022/10/20 01:51:45;;;;;;;12.40;6.38;;;13.30;99.90;;;;;;4971282;28;20033;-75
2022/10/20 01:54:26;;;;;;;11.38;5.13;;;13.30;99.90;;;;;;4971266;28;20158;-76
2022/10/20 01:57:30;;;;;;;11.40;5.25;;;13.40;99.90;;;;;;4971123;28;20037;-75
2022/10/20 02:00:07;;;;;;;12.40;5.30;;;13.30;99.90;;;;;;4973343;28;20427;-74
2022/10/20 02:02:52;;;;;;;10.43;5.38;;;13.30;99.90;;;;;;4970794;28;20555;-74
2022/10/20 02:05:39;;;;;;;15.27;5.97;;;13.30;99.90;;;;;;4971077;28;20027;-75
2022/10/20 02:08:16;;;;;;;15.98;6.40;;;13.20;99.90;;;;;;4970826;28;20492;-74
2022/10/20 02:11:04;;;;;;;16.30;6.30;;;13.20;99.90;;;;;;4985905;28;20067;-77
2022/10/20 02:13:31;;;;;;;13.52;5.43;;;13.20;99.90;;;;;;4971043;28;20026;-76
2022/10/20 02:16:00;;;;;;;8.82;5.93;;;13.20;99.90;;;;;;4970723;28;20023;-76
2022/10/20 02:18:28;;;;;;;;;;;13.20;99.90;;;;;;4971251;28;20130;-75
2022/10/20 02:20:57;;;;;;;18.63;5.88;;;13.20;99.90;;;;;;4970848;28;19969;-75
2022/10/20 02:23:23;;;;;;;9.50;5.35;;;13.20;99.90;;;;;;4971074;28;20035;-75
2022/10/20 02:25:51;;;;;;;12.52;6.35;;;13.20;99.90;;;;;;4970716;28;20069;-75
2022/10/20 02:28:18;;;;;;;13.45;7.03;;;13.10;99.90;;;;;;4970851;28;20035;-74
2022/10/20 02:30:45;;;;;;;15.02;6.85;;;13.10;99.90;;;;;;4970712;28;20019;-74
2022/10/20 02:33:12;;;;;;;21.38;6.70;;;13.10;99.90;;;;;;4970996;28;20066;-75
2022/10/20 02:35:47;;;;;;;11.15;6.50;;;13.10;99.90;;;;;;4970968;28;20023;-74
2022/10/20 02:38:12;;;;;;;10.35;6.22;;;13.10;99.90;;;;;;4972891;28;20047;-74
2022/10/20 02:40:38;;;;;;;13.00;6.60;;;13.00;99.90;;;;;;4975817;28;20483;-75
2022/10/20 02:43:04;;;;;;;19.85;7.47;;;13.10;99.90;;;;;;4974380;28;20026;-74
2022/10/20 02:45:29;;;;;;;15.60;5.45;;;13.00;99.90;;;;;;4972746;28;20113;-75
2022/10/20 02:47:55;;;;;;;14.63;5.60;;;13.00;99.90;;;;;;4974445;28;20063;-77
2022/10/20 02:50:21;;;;;;;11.60;5.28;;;13.00;99.90;;;;;;4976113;28;20115;-74
2022/10/20 02:52:46;;;;;;;22.65;8.50;;;13.10;99.90;;;;;;4974249;28;20565;-74
2022/10/20 02:55:12;;;;;;;13.07;5.82;;;13.10;99.90;;;;;;4974205;28;20397;-74
2022/10/20 02:57:38;;;;;;;17.98;7.10;;;13.10;99.90;;;;;;4974071;28;20107;-72
2022/10/20 03:00:06;;;;;;;17.85;6.43;;;12.90;99.90;;;;;;4974274;28;20019;-74
2022/10/20 03:02:32;;;;;;;13.00;6.05;;;;;;;;;;4974047;28;20058;-75
2022/10/20 03:04:58;;;;;;;10.65;5.55;;;12.90;99.90;;;;;;4974018;28;20023;-74
2022/10/20 03:07:23;;;;;;;16.40;5.95;;;12.90;99.90;;;;;;4988821;28;20503;-74
2022/10/20 03:09:49;;;;;;;19.75;7.45;;;12.90;99.90;;;;;;4974488;28;20467;-76
2022/10/20 03:12:15;;;;;;;12.65;5.95;;;13.00;99.90;;;;;;4973766;28;20491;-76
2022/10/20 03:14:41;;;;;;;16.67;6.75;;;13.00;99.90;;;;;;4973930;28;20023;-76
2022/10/20 03:17:08;;;;;;;12.02;7.10;;;13.00;99.90;;;;;;4973492;28;20106;-74
2022/10/20 03:19:34;;;;;;;12.55;7.15;;;13.20;99.90;;;;;;4973479;28;20174;-75
2022/10/20 03:21:59;;;;;;;16.00;6.53;;;13.20;99.90;;;;;;4973582;28;20527;-75
2022/10/20 03:24:25;;;;;;;16.50;6.30;;;13.10;99.90;;;;;;4973516;28;20472;-74
2022/10/20 03:26:51;;;;;;;17.42;7.07;;;13.10;99.90;;;;;;4973515;28;20439;-74
2022/10/20 03:29:16;;;;;;;16.23;7.63;;;13.10;99.90;;;;;;4973754;28;20102;-74
2022/10/20 03:31:42;;;;;;;14.07;6.68;;;13.10;99.90;;;;;;4973494;28;20061;-75
2022/10/20 03:34:08;;;;;;;15.77;7.22;;;13.10;99.90;;;;;;4973929;28;20047;-75
2022/10/20 03:36:34;;;;;;;25.33;7.63;;;13.10;99.90;;;;;;4973249;28;20035;-74
2022/10/20 03:38:59;;;;;;;13.40;7.22;;;13.20;99.90;;;;;;4973450;28;20441;-75
2022/10/20 03:41:25;;;;;;;14.98;7.28;;;13.20;99.90;;;;;;4972000;28;20491;-76
2022/10/20 03:43:51;;;;;;;10.18;7.60;;;13.20;99.90;;;;;;4975167;28;20464;-75
2022/10/20 03:46:16;;;;;;;16.60;7.43;;;13.20;99.90;;;;;;4973004;28;20026;-75
2022/10/20 03:48:42;;;;;;;20.73;6.90;;;13.10;99.90;;;;;;4973226;28;20030;-75
2022/10/20 03:51:08;;;;;;;16.25;6.80;;;13.10;99.90;;;;;;4972517;28;20027;-75
2022/10/20 03:53:34;;;;;;;14.68;7.93;;;13.10;99.90;;;;;;4974733;28;20026;-76
2022/10/20 03:56:08;;;;;;;13.85;7.15;;;13.10;99.90;;;;;;4972892;28;20077;-77
2022/10/20 03:58:34;;;;;;;19.25;8.15;;;13.10;99.90;;;;;;4973025;28;20030;-75
2022/10/20 04:00:59;;;;;;;16.45;6.60;;;13.10;99.90;;;;;;4972650;28;20026;-74
2022/10/20 04:03:25;;;;;;;24.38;8.07;;;13.10;99.90;;;;;;4972997;28;20019;-74
2022/10/20 04:05:51;;;;;;;17.38;8.00;;;13.20;99.90;;;;;;4973125;28;20026;-75
2022/10/20 04:08:16;;;;;;;16.40;6.72;;;12.50;99.90;;;;;;4972680;28;20035;-75
2022/10/20 04:10:42;;;;;;;17.60;6.55;;;13.10;99.90;;;;;;4972741;28;20523;-74
2022/10/20 04:13:08;;;;;;;13.32;7.38;;;13.10;99.90;;;;;;4972739;28;20077;-73
2022/10/20 04:15:33;;;;;;;18.38;7.90;;;13.00;99.90;;;;;;4974274;28;20488;-75
2022/10/20 04:17:59;;;;;;;19.30;6.93;;;12.90;99.90;;;;;;4972952;28;20031;-74
2022/10/20 04:20:25;;;;;;;20.40;8.40;;;12.90;99.90;;;;;;4977867;28;20098;-75
2022/10/20 04:22:50;;;;;;;32.17;8.00;;;12.90;99.90;;;;;;4976662;28;20031;-75
2022/10/20 04:25:16;;;;;;;19.08;7.57;;;12.90;99.90;;;;;;4976600;28;20058;-75
2022/10/20 04:27:42;;;;;;;13.75;7.43;;;12.90;99.90;;;;;;4976140;28;20082;-77
2022/10/20 04:30:09;;;;;;;16.25;6.43;;;12.90;99.90;;;;;;4977046;28;20027;-76
2022/10/20 04:32:34;;;;;;;18.23;9.05;;;12.90;99.90;;;;;;4973124;28;20472;-74
2022/10/20 04:35:00;;;;;;;19.90;8.57;;;13.00;99.90;;;;;;4973188;28;20034;-74
2022/10/20 04:37:26;;;;;;;14.25;7.50;;;13.10;99.90;;;;;;4972362;28;20030;-74
2022/10/20 04:39:52;;;;;;;13.45;7.40;;;13.10;99.90;;;;;;4973428;28;20320;-75
2022/10/20 04:42:18;;;;;;;16.90;7.70;;;13.10;99.90;;;;;;4972261;28;20046;-75
2022/10/20 04:44:44;;;;;;;15.00;7.20;;;13.10;99.90;;;;;;4973811;28;20105;-75
2022/10/20 04:47:10;;;;;;;13.63;6.85;;;13.10;99.90;;;;;;4972224;28;20173;-75
2022/10/20 04:49:35;;;;;;;15.45;7.18;;;13.20;99.90;;;;;;4974202;28;20019;-74
2022/10/20 04:52:01;;;;;;;11.55;7.00;;;;;;;;;;4971887;28;20027;-75
2022/10/20 04:54:28;;;;;;;18.10;6.95;;;;;;;;;;4973586;28;20138;-75
2022/10/20 04:56:54;;;;;;;13.18;6.75;;;13.20;99.90;;;;;;4971931;28;20045;-75
2022/10/20 04:59:19;;;;;;;15.55;6.28;;;13.10;99.90;;;;;;4971850;28;20098;-74
2022/10/20 05:01:45;;;;;;;15.00;7.57;;;13.00;99.90;;;;;;4970249;28;20113;-74
2022/10/20 05:04:11;;;;;;;20.42;6.07;;;13.00;99.90;;;;;;4972047;28;20488;-75
2022/10/20 05:06:37;;;;;;;20.67;8.02;;;13.00;99.90;;;;;;4971827;28;20441;-76
2022/10/20 05:09:04;;;;;;;23.13;7.88;;;13.00;99.90;;;;;;4973066;28;20041;-74
2022/10/20 05:11:34;;;;;;;12.27;6.63;;;12.90;99.90;;;;;;4971625;28;20049;-76
2022/10/20 05:14:00;;;;;;;;;;;12.90;99.90;;;;;;4972047;28;20027;-76
2022/10/20 05:16:26;;;;;;;19.52;7.93;;;12.90;99.90;;;;;;4972316;28;19994;-75
2022/10/20 05:18:53;;;;;;;15.88;6.75;;;12.90;99.90;;;;;;4976599;28;20044;-75
2022/10/20 05:21:22;;;;;;;16.83;7.60;;;12.90;99.90;;;;;;4973078;28;20073;-75
2022/10/20 05:23:48;;;;;;;18.23;7.90;;;12.90;99.90;;;;;;4971734;28;20023;-75
2022/10/20 05:26:18;;;;;;;19.58;8.90;;;12.90;99.90;;;;;;4978145;28;20054;-74
2022/10/20 05:28:45;;;;;;;;;;;12.90;99.90;;;;;;4976096;28;20101;-75
2022/10/20 05:31:11;;;;;;;18.17;8.80;;;12.80;99.90;;;;;;4974374;28;19906;-75
2022/10/20 05:33:38;;;;;;;16.10;8.32;;;12.90;99.90;;;;;;4978368;28;20046;-76
2022/10/20 05:36:11;;;;;;;13.93;7.03;;;12.80;99.90;;;;;;4974039;28;20037;-78
2022/10/20 05:38:37;;;;;;;25.20;7.95;;;12.90;99.90;;;;;;4972095;28;20476;-75
2022/10/20 05:41:11;;;;;;;21.08;7.47;;;12.80;99.90;;;;;;4971509;28;20038;-75
2022/10/20 05:43:38;;;;;;;16.80;7.55;;;12.90;99.90;;;;;;4972864;28;20034;-74
2022/10/20 05:46:04;;;;;;;18.17;7.18;;;;;;;;;;4978943;28;20033;-75
2022/10/20 05:48:31;;;;;;;12.57;6.93;;;12.90;99.90;;;;;;4979973;28;20046;-74
2022/10/20 05:51:09;;;;;;;15.55;7.03;;;12.90;99.90;;;;;;4981504;28;20358;-75
2022/10/20 05:53:34;;;;;;;17.50;8.05;;;12.90;99.90;;;;;;4981369;28;20038;-77
2022/10/20 05:56:08;;;;;;;18.08;7.13;;;12.90;99.90;;;;;;4980987;28;20307;-77
2022/10/20 05:58:34;;;;;;;14.27;7.47;;;12.90;99.90;;;;;;4979422;28;20026;-74
2022/10/20 06:01:04;;;;;;;14.18;7.07;;;;;;;;;;4983160;28;20387;-74
2022/10/20 06:03:30;;;;;;;17.40;8.10;;;12.90;99.90;;;;;;4982751;28;20086;-75
2022/10/20 06:05:57;;;;;;;14.40;7.40;;;12.90;99.90;;;;;;4977652;28;20062;-80
2022/10/20 06:08:22;;;;;;;14.45;7.22;;;13.00;99.90;;;;;;4976483;28;20049;-79
2022/10/20 06:10:48;;;;;;;22.00;8.32;;;13.00;99.90;;;;;;4973726;28;20023;-77
2022/10/20 06:13:14;;;;;;;21.70;7.88;;;13.10;99.90;;;;;;4975611;28;20089;-75
2022/10/20 06:15:39;;;;;;;20.38;7.32;;;13.10;99.90;;;;;;4979435;28;20679;-75
2022/10/20 06:18:05;;;;;;;22.23;7.90;;;13.20;99.90;;;;;;4981750;28;20500;-75
2022/10/20 06:20:30;;;;;;;22.70;7.28;;;13.20;99.90;;;;;;4983124;28;20050;-76
2022/10/20 06:22:56;;;;;;;16.98;6.75;;;13.20;99.90;;;;;;4982886;28;20787;-77
2022/10/20 06:25:22;;;;;;;14.77;7.72;;;13.30;99.90;;;;;;4985488;28;20493;-78
2022/10/20 06:27:47;;;;;;;16.38;7.70;;;13.30;99.90;;;;;;4983464;28;20035;-79
2022/10/20 06:30:13;;;;;;;26.42;6.82;;;13.40;99.90;;;;;;4975890;28;20039;-82
2022/10/20 06:32:39;;;;;;;16.50;7.30;;;13.50;99.90;;;;;;4975168;28;20026;-83
2022/10/20 06:35:05;;;;;;;27.05;6.80;;;13.50;99.90;;;;;;4976691;28;20023;-76
2022/10/20 06:37:30;;;;;;;12.20;7.07;;;13.50;99.90;;;;;;4981044;28;20041;-80
2022/10/20 06:39:57;;;;;;;21.75;7.55;;;13.50;99.90;;;;;;4976501;28;20023;-75
2022/10/20 06:42:23;;;;;;;12.82;5.80;;;14.50;99.90;;;;;;4986969;28;20411;-74
2022/10/20 06:44:49;;;;;;;12.30;6.15;;;13.50;99.90;;;;;;4986126;28;20026;-74
2022/10/20 06:47:19;;;;;;;12.98;6.00;;;13.50;99.90;;;;;;4979645;28;20034;-77
2022/10/20 06:49:50;;;;;;;12.85;7.25;;;13.40;99.90;;;;;;4973963;28;20026;-82
2022/10/20 06:52:16;;;;;;;12.27;6.70;;;13.40;99.90;;;;;;4982682;28;20037;-80
2022/10/20 06:54:41;;;;;;;18.45;8.05;;;13.30;99.90;;;;;;5003811;28;20077;-74
2022/10/20 06:57:07;;;;;;;10.85;4.47;;;13.30;99.90;;;;;;5005634;28;20034;-74
2022/10/20 06:59:33;;;;;;;12.95;4.28;;;13.20;99.90;;;;;;5000663;28;20022;-74
2022/10/20 07:02:00;;;;;;;11.95;4.80;;;13.00;99.90;;;;;;4999405;28;20030;-75
2022/10/20 07:04:26;;;;;;;9.77;5.03;;;13.00;99.90;;;;;;4999933;28;20022;-77
2022/10/20 07:06:51;;;;;;;27.35;5.57;;;12.90;99.90;;;;;;4999822;28;20042;-74
2022/10/20 07:09:19;;;;;;;11.55;5.35;;;13.00;99.90;;;;;;4995972;28;20027;-74
2022/10/20 07:11:49;;;;;;;16.65;6.07;;;13.10;99.90;;;;;;4990515;28;20030;-76
2022/10/20 07:14:15;;;;;;;14.35;6.03;;;13.20;99.90;;;;;;4992526;28;20368;-78
2022/10/20 07:16:40;;;;;;;15.00;5.95;;;13.20;99.90;;;;;;4990323;28;20058;-77
2022/10/20 07:19:06;;;;;;;12.57;6.25;;;13.30;99.90;;;;;;4991045;28;20080;-77
2022/10/20 07:21:32;;;;;;;13.60;5.40;;;13.40;99.90;;;;;;4983798;28;20050;-78
2022/10/20 07:24:00;;;;;;;15.52;5.57;;;13.50;99.90;;;;;;4991020;28;20073;-78
2022/10/20 07:26:28;;;;;;;11.15;4.90;;;13.50;99.90;;;;;;4989075;28;20022;-77
2022/10/20 07:28:56;;;;;;;9.57;5.15;;;13.60;99.90;;;;;;4990603;28;20034;-79
2022/10/20 07:31:31;;;;;;;13.07;6.00;;;13.60;99.90;;;;;;4984467;28;20019;-75
2022/10/20 07:34:00;;;;;;;13.57;6.07;;;13.70;99.90;;;;;;4970622;28;20027;-77
2022/10/20 07:36:28;;;;;;;16.02;6.35;;;13.70;99.90;;;;;;4972452;28;20479;-77
2022/10/20 07:38:55;;;;;;;12.68;6.45;;;13.90;99.90;;;;;;4991424;28;20676;-78
2022/10/20 07:41:22;;;;;;;12.10;6.63;;;14.00;99.90;;;;;;4976729;28;20156;-78
2022/10/20 07:43:48;;;;;;;16.42;5.25;;;14.20;99.90;;;;;;4971043;28;20057;-77
2022/10/20 07:46:14;;;;;;;11.65;5.85;;;14.30;99.90;;;;;;4970470;28;20022;-78
2022/10/20 07:48:40;;;;;;;15.38;5.50;;;14.50;99.90;;;;;;4972448;28;20046;-77
2022/10/20 07:51:28;;;;;;;12.95;5.55;;;14.80;99.90;;;;;;4970396;28;20027;-80
2022/10/20 07:54:04;;;;;;;12.15;6.32;;;15.00;99.90;;;;;;4979242;28;20031;-79
2022/10/20 07:56:34;;;;;;;9.95;4.75;;;15.20;99.90;;;;;;4995308;28;20058;-78
2022/10/20 07:58:59;;;;;;;14.10;5.13;;;15.40;99.90;;;;;;4980164;28;20026;-77
2022/10/20 08:01:25;;;;;;;7.72;4.28;;;15.50;99.90;;;;;;4980449;28;20034;-77
2022/10/20 08:03:51;;;;;;;9.38;4.55;;;15.70;99.90;;;;;;4978965;28;20220;-78
2022/10/20 08:06:17;;;;;;;17.23;6.35;;;18.10;99.90;;;;;;4978416;28;20030;-76
2022/10/20 08:08:42;;;;;;;9.27;4.65;;;16.00;99.90;;;;;;4980679;28;20066;-78
2022/10/20 08:11:08;;;;;;;11.80;4.47;;;16.10;99.90;;;;;;4980753;28;20219;-76
2022/10/20 08:13:34;;;;;;;18.50;5.63;;;15.90;99.90;;;;;;4980900;28;20034;-75
2022/10/20 08:16:00;;;;;;;10.50;5.35;;;15.90;99.90;;;;;;4979778;28;20034;-76
2022/10/20 08:18:26;;;;;;;12.27;4.88;;;16.00;99.90;;;;;;4978547;28;20030;-78
2022/10/20 08:20:52;;;;;;;14.75;5.00;;;16.20;99.90;;;;;;4979492;28;20126;-79
2022/10/20 08:23:17;;;;;;;11.38;5.15;;;16.40;99.90;;;;;;4976325;28;20558;-75
2022/10/20 08:25:43;;;;;;;14.52;5.53;;;16.60;99.90;;;;;;4979111;28;20030;-77
2022/10/20 08:28:09;;;;;;;12.13;4.15;;;16.80;99.90;;;;;;4975621;28;20042;-76
2022/10/20 08:30:35;;;;;;;8.40;3.95;;;16.90;99.90;;;;;;4971082;28;20027;-76
2022/10/20 08:33:01;;;;;;;5.97;3.65;;;17.10;99.90;;;;;;4979521;28;20104;-78
2022/10/20 08:35:27;;;;;;;11.55;4.63;;;17.30;99.90;;;;;;4979114;28;20195;-79
2022/10/20 08:37:53;;;;;;;7.72;4.40;;;17.20;99.90;;;;;;4974093;28;20030;-77
2022/10/20 08:40:25;;;;;;;6.15;3.90;;;17.30;99.90;;;;;;4976375;28;20018;-76
2022/10/20 08:42:52;;;;;;;9.40;3.92;;;17.30;99.90;;;;;;4996901;28;20178;-79
2022/10/20 08:45:24;;;;;;;14.77;5.13;;;17.30;99.90;;;;;;4993546;28;20033;-74
2022/10/20 08:47:54;;;;;;;5.97;3.90;;;17.40;99.90;;;;;;4991998;28;20030;-76
2022/10/20 08:50:20;;;;;;;8.18;4.03;;;17.20;99.90;;;;;;4992709;28;20014;-79
2022/10/20 08:52:51;;;;;;;6.18;4.05;;;16.10;99.90;;;;;;4989995;28;20036;-78
2022/10/20 08:55:32;;;;;;;11.18;3.97;;;17.00;99.90;;;;;;4982289;28;20313;-79
2022/10/20 08:58:05;;;;;;;5.55;3.67;;;16.90;99.90;;;;;;4979230;28;20032;-79
2022/10/20 09:00:32;;;;;;;4.22;3.25;;;;;;;;;;4979249;28;20495;-78
2022/10/20 09:03:12;;;;;;;10.10;4.13;;;16.90;99.90;;;;;;4978916;28;20037;-78
2022/10/20 09:05:41;;;;;;;5.78;3.92;;;16.90;99.90;;;;;;5002309;28;20062;-79
2022/10/20 09:08:08;;;;;;;11.73;4.68;;;16.80;99.90;;;;;;4986232;28;20049;-77
2022/10/20 09:10:41;;;;;;;7.88;4.18;;;16.90;99.90;;;;;;4986425;28;20561;-78
2022/10/20 09:13:25;;;;;;;10.35;4.15;;;17.00;99.90;;;;;;4990333;28;20049;-78
2022/10/20 09:15:54;;;;;;;11.38;5.13;;;17.10;99.90;;;;;;4986003;28;20018;-78
2022/10/20 09:18:20;;;;;;;6.95;3.85;;;17.10;99.90;;;;;;4988210;28;20494;-77
2022/10/20 09:20:53;;;;;;;6.82;3.90;;;17.10;99.90;;;;;;4992423;28;20054;-77
2022/10/20 09:23:23;;;;;;;9.18;3.95;;;17.00;99.90;;;;;;4990585;28;20026;-76
2022/10/20 09:25:51;;;;;;;7.40;4.10;;;16.90;99.90;;;;;;4986701;28;20033;-76
2022/10/20 09:28:25;;;;;;;8.77;4.78;;;16.80;99.90;;;;;;4987314;28;20038;-75
2022/10/20 09:30:51;;;;;;;6.22;3.42;;;16.80;99.90;;;;;;4985363;28;20093;-74
2022/10/20 09:33:27;;;;;;;10.13;4.63;;;16.70;99.90;;;;;;4985755;28;20042;-74
2022/10/20 09:35:57;;;;;;;9.00;5.00;;;16.70;99.90;;;;;;4985467;28;20038;-74
2022/10/20 09:38:28;;;;;;;10.90;5.00;;;16.60;99.90;;;;;;4984023;28;20540;-75
2022/10/20 09:41:16;;;;;;;13.05;4.28;;;16.50;99.90;;;;;;4975574;28;20109;-75
2022/10/20 09:44:05;;;;;;;7.60;4.47;;;16.50;99.90;;;;;;4967264;28;20034;-75
2022/10/20 09:46:38;;;;;;;10.77;5.05;;;16.40;99.90;;;;;;4966283;28;20084;-76
2022/10/20 09:49:06;;;;;;;8.30;4.47;;;16.50;99.90;;;;;;4965867;28;20408;-76
2022/10/20 09:51:33;;;;;;;11.50;5.07;;;;;;;;;;4966895;28;20038;-77
2022/10/20 09:54:05;;;;;;;7.75;3.88;;;16.80;99.90;;;;;;4966579;28;20034;-76
2022/10/20 09:56:35;;;;;;;7.47;4.43;;;16.90;99.90;;;;;;4966515;28;20034;-77
2022/10/20 09:59:04;;;;;;;7.80;4.50;;;16.90;99.90;;;;;;4964683;28;20031;-76
2022/10/20 10:01:30;;;;;;;;;;;16.90;99.90;;;;;;4966766;28;20011;-78
2022/10/20 10:04:00;;;;;;;9.45;4.70;;;17.00;99.90;;;;;;4966632;28;19910;-77
2022/10/20 10:06:37;;;;;;;11.93;5.50;;;17.20;99.90;;;;;;4965569;28;20446;-78
2022/10/20 10:09:33;;;;;;;9.02;3.67;;;17.40;99.90;;;;;;4966296;28;20031;-77
2022/10/20 10:12:11;;;;;;;7.22;4.10;;;17.70;99.90;;;;;;4966277;28;20125;-80
2022/10/20 10:14:48;;;;;;;12.38;5.65;;;17.90;99.90;;;;;;4983310;28;20373;-77
2022/10/20 10:17:32;;;;;;;7.70;4.43;;;17.90;99.90;;;;;;4968032;28;20038;-78
2022/10/20 10:19:59;;;;;;;8.32;4.65;;;18.00;99.90;;;;;;4978324;28;20038;-78
2022/10/20 10:22:25;;;;;;;5.25;3.78;;;18.10;99.90;;;;;;4977841;28;20042;-78
2022/10/20 10:24:54;;;;;;;6.45;4.82;;;18.20;99.90;;;;;;4979422;28;20015;-78
2022/10/20 10:27:22;;;;;;;12.25;4.03;;;18.10;99.90;;;;;;4978604;28;20049;-77
2022/10/20 10:29:48;;;;;;;13.02;4.35;;;18.20;99.90;;;;;;4979204;28;20093;-77
2022/10/20 10:32:28;;;;;;;14.05;4.65;;;18.30;99.90;;;;;;4978299;28;20314;-77
2022/10/20 10:35:26;;;;;;;12.02;4.82;;;18.40;99.90;;;;;;4978210;28;20038;-76
2022/10/20 10:37:52;;;;;;;11.07;4.60;;;18.40;99.90;;;;;;4978326;28;20102;-77
2022/10/20 10:40:23;;;;;;;7.25;4.43;;;18.50;99.90;;;;;;4983842;28;20149;-76
2022/10/20 10:43:28;;;;;;;6.95;4.53;;;18.60;99.90;;;;;;4997941;28;20018;-76
2022/10/20 10:46:18;;;;;;;9.10;4.75;;;18.70;99.90;;;;;;4997570;28;20153;-78
2022/10/20 10:49:08;;;;;;;14.20;4.95;;;18.70;99.90;;;;;;4990592;28;20526;-78
2022/10/20 10:51:48;;;;;;;8.63;4.45;;;18.70;99.90;;;;;;4985482;28;20046;-78
2022/10/20 10:54:51;;;;;;;10.13;5.20;;;18.90;99.90;;;;;;4983230;28;20125;-78
2022/10/20 10:57:31;;;;;;;12.57;4.07;;;19.20;99.90;;;;;;4984585;28;20395;-77
2022/10/20 11:00:00;;;;;;;8.57;3.67;;;19.50;99.90;;;;;;4998110;28;20038;-77
2022/10/20 11:02:38;;;;;;;;;;;19.60;99.90;;;;;;5001661;28;20218;-77
2022/10/20 11:05:18;;;;;;;12.55;4.05;;;19.60;99.90;;;;;;4998527;28;20405;-77
2022/10/20 11:08:16;;;;;;;12.07;5.03;;;19.60;99.90;;;;;;5001396;28;20042;-76
2022/10/20 11:10:58;;;;;;;5.95;3.50;;;19.60;99.90;;;;;;5000187;28;20038;-76
2022/10/20 11:13:35;;;;;;;11.25;5.20;;;19.50;99.90;;;;;;5000365;28;20306;-76
2022/10/20 11:16:07;;;;;;;7.95;4.15;;;19.50;99.90;;;;;;4997854;28;20422;-77
2022/10/20 11:18:54;;;;;;;6.15;3.20;;;19.70;99.90;;;;;;4999737;28;20258;-77
2022/10/20 11:21:41;;;;;;;5.45;3.75;;;19.70;99.90;;;;;;4995181;28;20394;-77
2022/10/20 11:24:18;;;;;;;12.02;4.72;;;19.70;99.90;;;;;;4991328;28;20270;-77
2022/10/20 11:26:50;;;;;;;19.80;4.53;;;19.90;99.90;;;;;;5007627;28;20025;-77
2022/10/20 11:29:40;;;;;;;5.53;2.92;;;20.00;99.90;;;;;;4987915;28;20411;-76
2022/10/20 11:32:18;;;;;;;6.65;3.03;;;19.90;99.90;;;;;;4984648;28;20094;-77
2022/10/20 11:35:17;;;;;;;11.45;4.50;;;20.00;99.90;;;;;;4991960;28;20064;-77
2022/10/20 11:37:55;;;;;;;8.88;3.63;;;20.00;99.90;;;;;;4978883;28;20034;-77
2022/10/20 11:40:22;;;;;;;4.70;3.28;;;20.00;99.90;;;;;;4979660;28;20049;-76
2022/10/20 11:43:03;;;;;;;12.25;3.83;;;20.00;99.90;;;;;;4981885;28;20084;-77
2022/10/20 11:45:53;;;;;;;4.95;3.30;;;20.10;99.90;;;;;;4980048;28;20026;-77
2022/10/20 11:48:35;;;;;;;7.03;3.88;;;20.20;99.90;;;;;;4979828;28;20038;-76
2022/10/20 11:51:08;;;;;;;5.63;3.08;;;20.20;99.90;;;;;;4980696;28;20022;-79
2022/10/20 11:54:02;;;;;;;6.95;2.72;;;19.90;99.90;;;;;;4985500;28;20653;-77
2022/10/20 11:56:49;;;;;;;8.98;3.58;;;19.80;99.90;;;;;;4988965;28;20042;-76
2022/10/20 11:59:40;;;;;;;7.03;3.78;;;19.80;99.90;;;;;;4987541;28;20036;-76
2022/10/20 12:02:24;;;;;;;5.13;2.58;;;19.70;99.90;;;;;;4985189;28;20022;-77
2022/10/20 12:05:24;;;;;;;6.53;3.65;;;19.60;99.90;;;;;;4969529;28;20179;-76
2022/10/20 12:08:27;;;;;;;8.32;2.90;;;19.60;99.90;;;;;;4918245;28;20043;-78
2022/10/20 12:11:20;;;;;;;10.05;2.40;;;19.50;99.90;;;;;;4968504;28;20059;-78
2022/10/20 12:13:58;;;;;;;6.45;4.53;;;19.40;99.90;;;;;;4969238;28;20019;-77
2022/10/20 12:16:54;;;;;;;5.93;2.60;;;19.40;99.90;;;;;;4969086;28;20041;-77
2022/10/20 12:19:24;;;;;;;6.10;3.20;;;19.20;99.90;;;;;;4968944;28;20050;-77
2022/10/20 12:22:25;;;;;;;10.98;2.65;;;19.20;99.90;;;;;;4966451;28;20065;-77
2022/10/20 12:24:53;;;;;;;21.85;4.45;;;19.20;99.90;;;;;;4969092;28;20033;-77
2022/10/20 12:27:22;;;;;;;7.75;3.95;;;19.10;99.90;;;;;;4969102;28;20041;-77
2022/10/20 12:29:50;;;;;;;4.90;3.67;;;19.10;99.90;;;;;;4969020;28;20062;-77
2022/10/20 12:32:23;;;;;;;7.20;4.70;;;19.10;99.90;;;;;;4969124;28;20151;-77
2022/10/20 12:34:53;;;;;;;7.85;4.30;;;19.30;99.90;;;;;;4969274;28;20483;-77
2022/10/20 12:37:19;;;;;;;5.10;3.88;;;19.30;99.90;;;;;;4968943;28;20066;-77
2022/10/20 12:39:46;;;;;;;7.80;4.72;;;19.40;99.90;;;;;;4969440;28;20031;-76
2022/10/20 12:42:32;;;;;;;5.35;3.72;;;19.50;99.90;;;;;;4988446;28;20424;-77
2022/10/20 12:45:18;;;;;;;9.45;4.53;;;19.50;99.90;;;;;;4987282;28;20026;-78
2022/10/20 12:47:57;;;;;;;9.23;4.22;;;19.60;99.90;;;;;;4988401;28;20092;-78
2022/10/20 12:50:37;;;;;;;9.23;4.40;;;19.90;99.90;;;;;;4989408;28;20117;-77
2022/10/20 12:53:21;;;;;;;7.38;4.40;;;20.00;99.90;;;;;;4990095;28;20375;-78
2022/10/20 12:56:02;;;;;;;4.05;3.15;;;20.20;99.90;;;;;;4990078;28;20026;-78
2022/10/20 12:58:30;;;;;;;8.85;3.58;;;20.20;99.90;;;;;;4984198;28;20028;-78
2022/10/20 13:00:59;;;;;;;7.82;3.95;;;20.30;99.90;;;;;;4987751;28;20030;-78
2022/10/20 13:03:30;;;;;;;7.80;4.03;;;20.20;99.90;;;;;;4987746;28;20227;-77